Terminal Aerodrome Forecast
Issued by NWS

Home | Current Version | Previous Version | Text Only | Print | Product List | Glossary On
Versions: 1 2 3 4 5 6 7 8 9 10 11 12 13 14 15 16 17 18 19 20 21 22 23 24 25 26 27 28 29 30 31 32 33
950
FTUS41 KRNK 142340
TAFLWB
TAF
KLWB 142340Z 1500/1524 10004KT 1 1/2SM -SN OVC007
     FM150100 13005KT 3/4SM -SN BR VV007
     FM150400 VRB03KT 1/2SM SN FZFG VV003
     FM151500 VRB03KT 1 1/2SM -FZRAPL BR OVC005=

USA.gov is the U.S. government's official web portal to all federal, state and local government web resources and services.